Time;durP1;ratioP1;P1;durP2;ratioP2;P2;SDS_P1;SDS_P2;PMS_P1;PMS_P2;Temp;Humidity;BMP_temperature;BMP_pressure;BME280_temperature;BME280_humidity;BME280_pressure;Samples;Min_cycle;Max_cycle;Signal;HPM_P1;HPM_P2
2022/12/25 00:01:19;;;;;;;2.92;1.35;;;;;;;-3.21;100.00;99289.22;5159572;27;20061;-62
2022/12/25 00:03:46;;;;;;;3.42;1.35;;;;;;;-3.31;100.00;99304.22;5159864;27;20399;-64
2022/12/25 00:06:12;;;;;;;2.65;1.52;;;;;;;-3.02;100.00;99295.63;5159497;27;20153;-64
2022/12/25 00:08:39;;;;;;;1.80;1.60;;;;;;;-2.87;100.00;99284.81;5159428;27;20222;-62
2022/12/25 00:11:10;;;;;;;4.30;2.10;;;;;;;-3.06;100.00;99240.13;5159378;27;20133;-62
2022/12/25 00:13:36;;;;;;;2.75;1.70;;;;;;;-3.17;100.00;99244.69;5159845;27;20050;-66
2022/12/25 00:16:06;;;;;;;3.10;1.45;;;;;;;-2.92;100.00;99258.03;5159352;27;20118;-64
2022/12/25 00:18:33;;;;;;;2.42;1.23;;;;;;;-3.24;100.00;99231.56;5159230;27;20108;-64
2022/12/25 00:21:01;;;;;;;5.65;1.60;;;;;;;-3.55;100.00;99236.19;5159409;27;20400;-63
2022/12/25 00:23:28;;;;;;;1.50;1.40;;;;;;;-3.25;100.00;99280.91;5159240;27;20051;-65
2022/12/25 00:25:56;;;;;;;2.70;1.70;;;;;;;-3.32;100.00;99286.56;5159348;27;20046;-63
2022/12/25 00:28:24;;;;;;;2.60;1.80;;;;;;;-3.24;100.00;99297.78;5159268;27;20122;-65
2022/12/25 00:30:50;;;;;;;1.70;1.60;;;;;;;-3.12;100.00;99292.97;5159471;27;20100;-63
2022/12/25 00:33:17;;;;;;;1.90;1.70;;;;;;;-2.97;100.00;99295.59;5159005;27;20061;-65
2022/12/25 00:35:43;;;;;;;3.63;1.90;;;;;;;-2.93;100.00;99314.63;5159504;27;20079;-65
2022/12/25 00:38:10;;;;;;;1.80;1.70;;;;;;;-3.04;100.00;99276.28;5159013;27;20047;-64
2022/12/25 00:40:43;;;;;;;2.83;1.50;;;;;;;-2.83;100.00;99263.66;5159395;27;20055;-62
2022/12/25 00:43:11;;;;;;;5.37;2.10;;;;;;;-3.16;100.00;99230.22;5159222;27;20051;-62
2022/12/25 00:45:38;;;;;;;1.67;1.58;;;;;;;-3.42;100.00;99253.59;5158778;27;20082;-66
2022/12/25 00:48:05;;;;;;;2.33;1.60;;;;;;;-3.00;100.00;99266.66;5159009;27;20464;-63
2022/12/25 00:50:31;;;;;;;2.85;1.73;;;;;;;-2.77;100.00;99246.41;5159012;27;20047;-64
2022/12/25 00:52:58;;;;;;;4.13;1.60;;;;;;;-2.95;100.00;99196.88;5158979;27;20106;-65
2022/12/25 00:55:24;;;;;;;1.88;1.58;;;;;;;-3.15;100.00;99162.91;5158713;27;20057;-63
2022/12/25 00:57:50;;;;;;;3.50;1.48;;;;;;;-3.02;100.00;99182.97;5158661;27;20553;-65
2022/12/25 01:00:17;;;;;;;2.13;1.90;;;;;;;-3.06;100.00;99156.97;5158734;27;20057;-63
2022/12/25 01:02:44;;;;;;;1.45;1.33;;;;;;;-2.78;100.00;99195.72;5158923;27;20408;-63
2022/12/25 01:05:10;;;;;;;2.08;1.70;;;;;;;-2.53;100.00;99174.13;5158619;27;20042;-64
2022/12/25 01:07:36;;;;;;;1.77;1.67;;;;;;;-2.49;100.00;99112.63;5158388;27;20130;-63
2022/12/25 01:12:48;;;;;;;5.18;2.00;;;;;;;-2.59;100.00;99040.25;5158522;27;20066;-65
2022/12/25 01:15:14;;;;;;;1.67;1.42;;;;;;;-2.59;100.00;99024.94;5158587;27;20141;-64
2022/12/25 01:17:41;;;;;;;1.80;1.67;;;;;;;-2.74;100.00;98992.84;5158455;27;20050;-65
2022/12/25 01:20:09;;;;;;;1.95;1.75;;;;;;;-2.35;100.00;99014.25;5157566;27;20050;-65
2022/12/25 01:22:35;;;;;;;4.85;1.80;;;;;;;-2.64;100.00;98961.34;5158331;27;20078;-65
2022/12/25 01:25:02;;;;;;;2.45;1.80;;;;;;;-2.51;100.00;98935.72;5158609;27;20053;-64
2022/12/25 01:27:28;;;;;;;1.80;1.70;;;;;;;-2.75;100.00;98924.97;5158244;27;20054;-65
2022/12/25 01:29:54;;;;;;;5.40;2.38;;;;;;;-2.92;100.00;98946.84;5158714;27;20046;-62
2022/12/25 01:32:20;;;;;;;2.25;1.55;;;;;;;-2.78;100.00;99000.66;5158044;27;20051;-65
2022/12/25 01:34:47;;;;;;;1.60;1.50;;;;;;;-2.76;100.00;99019.19;5158336;27;20090;-62
2022/12/25 01:37:13;;;;;;;4.47;1.88;;;;;;;-3.24;100.00;99022.44;5158393;27;20105;-64
2022/12/25 01:39:40;;;;;;;3.13;1.85;;;;;;;-2.42;100.00;99038.75;5158022;27;20061;-62
2022/12/25 01:42:09;;;;;;;2.13;1.60;;;;;;;-2.56;100.00;98954.59;5158401;27;20047;-66
2022/12/25 01:45:22;;;;;;;2.55;1.85;;;;;;;-2.25;100.00;98905.94;5158096;27;20095;-65
2022/12/25 01:47:48;;;;;;;2.30;1.77;;;;;;;-2.25;100.00;98857.59;5158456;27;20189;-62
2022/12/25 01:50:15;;;;;;;1.80;1.70;;;;;;;-2.34;100.00;98822.53;5157950;27;20054;-65
2022/12/25 01:52:42;;;;;;;2.65;1.88;;;;;;;-2.58;100.00;98798.41;5158362;27;20135;-66
2022/12/25 01:55:10;;;;;;;2.45;2.10;;;;;;;-2.80;100.00;98816.91;5158170;27;20075;-62
2022/12/25 01:57:37;;;;;;;2.67;1.90;;;;;;;-2.47;100.00;98858.91;5157831;27;20050;-64
2022/12/25 02:00:06;;;;;;;1.80;1.70;;;;;;;-2.47;100.00;98864.28;5157897;27;20046;-63
2022/12/25 02:02:33;;;;;;;2.30;1.98;;;;;;;-2.61;100.00;98849.97;5157857;27;20047;-64
2022/12/25 02:05:04;;;;;;;1.95;1.75;;;;;;;-2.69;100.00;98862.13;5157873;27;20059;-66
2022/12/25 02:07:34;;;;;;;2.25;2.05;;;;;;;-2.55;100.00;98881.03;5157777;27;20057;-62
2022/12/25 02:10:01;;;;;;;2.35;2.10;;;;;;;-2.75;100.00;98857.91;5158138;27;20057;-62
2022/12/25 02:12:31;;;;;;;2.30;1.70;;;;;;;-2.84;100.00;98884.53;5157676;27;20404;-64
2022/12/25 02:15:01;;;;;;;2.50;2.17;;;;;;;-2.50;100.00;98925.78;5158109;27;20047;-63
2022/12/25 02:17:35;;;;;;;2.80;1.80;;;;;;;-2.48;100.00;98894.13;5157515;27;20093;-63
2022/12/25 02:20:31;;;;;;;1.85;1.75;;;;;;;-3.09;100.00;98890.16;5157522;27;20098;-65
2022/12/25 02:23:09;;;;;;;2.55;1.98;;;;;;;-3.03;100.00;98923.91;5157862;27;20069;-63
2022/12/25 02:25:47;;;;;;;3.22;2.05;;;;;;;-3.06;100.00;98964.69;5157397;27;20065;-62
2022/12/25 02:28:20;;;;;;;3.08;2.47;;;;;;;-2.58;100.00;98986.28;5157877;27;20134;-63
2022/12/25 02:30:52;;;;;;;3.20;1.92;;;;;;;-2.41;100.00;98934.84;5158678;27;20061;-64
2022/12/25 02:36:17;;;;;;;3.65;2.65;;;;;;;-3.01;100.00;98908.31;5161278;27;20115;-65
2022/12/25 02:41:28;;;;;;;3.90;1.90;;;;;;;-2.91;100.00;99010.16;5159886;27;20079;-64
2022/12/25 03:11:49;;;;;;;4.70;3.33;;;;;;;-3.12;100.00;99089.16;5159465;27;20057;-64
2022/12/25 03:17:12;;;;;;;8.02;3.78;;;;;;;-2.83;100.00;99142.91;5097292;28;20040;-66
2022/12/25 03:27:57;;;;;;;9.60;4.07;;;;;;;-3.13;100.00;99090.25;5160232;27;20089;-62
2022/12/25 03:33:22;;;;;;;4.40;3.80;;;;;;;-3.32;100.00;99112.28;5160149;27;20118;-62
2022/12/25 03:36:02;;;;;;;8.45;4.18;;;;;;;-3.16;100.00;99090.78;5160476;27;20107;-62
2022/12/25 04:36:56;;;;;;;9.55;6.07;;;;;;;-3.12;100.00;99073.06;5159124;27;20066;-65
2022/12/25 04:39:23;;;;;;;10.25;6.45;;;;;;;-3.15;100.00;99042.22;5158917;27;20416;-62
2022/12/25 04:41:50;;;;;;;8.95;5.88;;;;;;;-2.98;100.00;99065.19;5159005;27;20046;-62
2022/12/25 04:44:16;;;;;;;14.73;8.25;;;;;;;-3.13;100.00;99063.41;5158905;27;20046;-65
2022/12/25 04:46:42;;;;;;;11.95;7.82;;;;;;;-3.25;100.00;99082.50;5158896;27;20054;-63
2022/12/25 04:49:08;;;;;;;14.02;8.48;;;;;;;-3.24;100.00;99083.31;5158866;27;20079;-65
2022/12/25 04:51:36;;;;;;;12.93;7.90;;;;;;;-3.08;100.00;99095.56;5158962;27;20082;-64
2022/12/25 04:54:02;;;;;;;12.77;8.55;;;;;;;-3.14;100.00;99067.97;5158776;27;20296;-62
2022/12/25 04:56:29;;;;;;;18.42;8.93;;;;;;;-3.30;100.00;99071.78;5159102;27;20101;-65
2022/12/25 04:58:55;;;;;;;14.02;8.55;;;;;;;-3.28;100.00;99071.53;5158606;27;20050;-62
2022/12/25 05:01:22;;;;;;;14.73;8.77;;;;;;;-3.22;100.00;99095.38;5158503;27;20402;-65
2022/12/25 05:03:48;;;;;;;12.32;7.97;;;;;;;-3.36;100.00;99076.41;5158566;27;20062;-64
2022/12/25 05:06:14;;;;;;;18.45;8.35;;;;;;;-3.46;100.00;99084.50;5158892;27;20046;-63
2022/12/25 05:08:40;;;;;;;11.82;7.60;;;;;;;-3.42;100.00;99085.53;5158446;27;20051;-64
2022/12/25 05:11:08;;;;;;;11.23;7.53;;;;;;;-3.89;100.00;99108.19;5158670;27;20175;-63
2022/12/25 05:13:35;;;;;;;13.00;8.10;;;;;;;-3.66;100.00;99156.91;5158731;27;20073;-63
2022/12/25 05:16:04;;;;;;;13.23;7.95;;;;;;;-3.66;100.00;99132.78;5158402;27;20142;-65
2022/12/25 05:18:31;;;;;;;14.23;8.50;;;;;;;-3.46;100.00;99172.94;5158667;27;20047;-63
2022/12/25 05:20:57;;;;;;;11.10;7.28;;;;;;;-3.38;100.00;99140.19;5158313;27;20447;-65
2022/12/25 05:23:23;;;;;;;9.48;7.03;;;;;;;-3.40;100.00;99079.88;5158551;27;20433;-63
2022/12/25 05:25:50;;;;;;;10.85;7.50;;;;;;;-3.34;100.00;99073.44;5158197;27;20418;-64
2022/12/25 05:28:16;;;;;;;11.27;7.80;;;;;;;-3.66;100.00;99045.19;5158663;27;20382;-63
2022/12/25 05:30:43;;;;;;;11.55;6.57;;;;;;;-3.96;100.00;99050.63;5158189;27;20055;-64
2022/12/25 05:33:09;;;;;;;12.15;7.00;;;;;;;-3.59;100.00;99115.34;5158599;27;20369;-64
2022/12/25 05:35:36;;;;;;;18.10;7.32;;;;;;;-3.41;100.00;99121.97;5158411;27;20374;-64
2022/12/25 05:38:03;;;;;;;10.00;6.53;;;;;;;-3.72;100.00;99104.41;5158177;27;20051;-66
2022/12/25 05:40:29;;;;;;;12.25;7.78;;;;;;;-3.45;100.00;99138.88;5158241;27;20330;-64
2022/12/25 05:42:55;;;;;;;13.75;8.80;;;;;;;-3.32;100.00;99141.78;5157985;27;20047;-63
2022/12/25 05:45:21;;;;;;;12.93;7.32;;;;;;;-3.29;100.00;99119.00;5157974;27;20050;-64
2022/12/25 05:47:48;;;;;;;15.82;7.63;;;;;;;-3.18;100.00;99092.94;5157901;27;20050;-64
2022/12/25 05:50:15;;;;;;;15.70;7.50;;;;;;;-3.42;100.00;99079.38;5158178;27;20138;-62
2022/12/25 05:52:41;;;;;;;13.65;8.15;;;;;;;-3.06;100.00;99080.00;5157779;27;20047;-63
2022/12/25 05:55:08;;;;;;;17.00;8.90;;;;;;;-2.97;100.00;99048.00;5158109;27;20086;-62
2022/12/25 05:57:34;;;;;;;14.38;8.02;;;;;;;-3.05;100.00;99011.88;5157780;27;20129;-63
2022/12/25 06:00:01;;;;;;;14.73;8.05;;;;;;;-3.22;100.00;99032.91;5158149;27;20062;-65
2022/12/25 06:02:27;;;;;;;17.98;7.72;;;;;;;-3.00;100.00;99061.97;5157589;27;20071;-62
2022/12/25 06:04:54;;;;;;;11.88;7.93;;;;;;;-3.10;100.00;99036.03;5157602;27;20051;-66
2022/12/25 06:07:20;;;;;;;13.18;8.70;;;;;;;-3.02;100.00;99032.78;5161334;27;20051;-64
2022/12/25 06:09:47;;;;;;;10.23;6.80;;;;;;;-3.10;100.00;99010.03;5161371;27;20078;-64
2022/12/25 06:12:13;;;;;;;14.60;7.93;;;;;;;-3.73;100.00;99054.56;5161401;27;20137;-63
2022/12/25 06:14:39;;;;;;;13.93;7.97;;;;;;;-3.37;100.00;99124.91;5161298;27;20115;-64
2022/12/25 06:17:05;;;;;;;15.75;9.35;;;;;;;-3.74;100.00;99136.00;5161628;27;20051;-63
2022/12/25 06:19:31;;;;;;;11.93;7.80;;;;;;;-3.52;100.00;99198.13;5161135;27;20463;-64
2022/12/25 06:21:58;;;;;;;11.90;8.13;;;;;;;-3.56;100.00;99168.41;5161445;27;20046;-64
2022/12/25 06:24:25;;;;;;;15.18;8.40;;;;;;;-3.27;100.00;99175.00;5161176;27;20138;-66
2022/12/25 06:26:51;;;;;;;13.40;8.52;;;;;;;-3.48;100.00;99183.13;5161478;27;20055;-62
2022/12/25 06:29:17;;;;;;;14.77;9.73;;;;;;;-3.51;100.00;99204.28;5160993;27;20076;-66
2022/12/25 06:31:43;;;;;;;12.80;8.07;;;;;;;-3.43;100.00;99215.28;5161381;27;20047;-63
2022/12/25 06:34:10;;;;;;;13.73;7.78;;;;;;;-3.36;100.00;99204.28;5161259;27;20341;-64
2022/12/25 06:36:38;;;;;;;12.25;7.80;;;;;;;-3.34;100.00;99177.97;5161204;27;20373;-64
2022/12/25 06:39:05;;;;;;;11.27;7.72;;;;;;;-3.69;100.00;99193.06;5160931;27;20082;-63
2022/12/25 06:41:31;;;;;;;11.57;7.70;;;;;;;-3.37;100.00;99257.06;5160868;27;20047;-63
2022/12/25 06:43:59;;;;;;;12.45;7.00;;;;;;;-3.49;100.00;99245.84;5161004;27;20050;-66
2022/12/25 06:46:27;;;;;;;12.55;7.57;;;;;;;-3.52;100.00;99286.56;5160866;27;20157;-66
2022/12/25 06:48:54;;;;;;;10.32;6.78;;;;;;;-3.58;100.00;99272.38;5160999;27;20430;-66
2022/12/25 06:51:22;;;;;;;12.20;8.30;;;;;;;-3.61;100.00;99288.97;5160703;27;20122;-64
2022/12/25 06:53:50;;;;;;;13.55;7.88;;;;;;;-3.37;100.00;99348.19;5161048;27;20047;-66
2022/12/25 06:56:19;;;;;;;12.02;8.20;;;;;;;-3.92;100.00;99282.81;5160477;27;20050;-63
2022/12/25 06:58:47;;;;;;;14.75;9.43;;;;;;;-3.79;100.00;99351.94;5160311;27;20042;-65
2022/12/25 07:01:19;;;;;;;17.60;8.88;;;;;;;-3.95;100.00;99433.34;5160599;27;20077;-66
2022/12/25 07:03:47;;;;;;;15.40;8.95;;;;;;;-4.16;100.00;99445.03;5160509;27;20078;-65
2022/12/25 07:06:14;;;;;;;14.07;7.72;;;;;;;-3.60;100.00;99501.47;5160453;27;20051;-63
2022/12/25 07:08:40;;;;;;;13.23;7.50;;;;;;;-3.68;100.00;99485.94;5160593;27;20384;-63
2022/12/25 07:11:07;;;;;;;12.80;8.38;;;;;;;-3.57;100.00;99507.13;5160805;27;20133;-65
2022/12/25 07:13:35;;;;;;;17.65;8.68;;;;;;;-3.57;100.00;99496.41;5160464;27;20043;-62
2022/12/25 07:16:04;;;;;;;11.95;8.05;;;;;;;-3.42;100.00;99508.25;5160709;27;20061;-63
2022/12/25 07:18:31;;;;;;;9.15;6.80;;;;;;;-3.48;100.00;99487.84;5158998;27;20074;-63
2022/12/25 07:20:58;;;;;;;11.30;6.70;;;;;;;-3.55;100.00;99458.63;5160726;27;20129;-63
2022/12/25 07:23:25;;;;;;;12.05;7.50;;;;;;;-3.49;100.00;99435.34;5160122;27;20058;-63
2022/12/25 07:25:54;;;;;;;9.30;6.32;;;;;;;-3.58;100.00;99416.28;5160384;27;20323;-65
2022/12/25 07:28:21;;;;;;;8.35;5.97;;;;;;;-3.60;100.00;99416.56;5160177;27;20064;-62
2022/12/25 07:30:48;;;;;;;10.65;6.95;;;;;;;-3.52;100.00;99427.81;5160099;27;20057;-66
2022/12/25 07:33:14;;;;;;;12.95;7.35;;;;;;;-3.61;100.00;99401.53;5160126;27;20082;-62
2022/12/25 07:35:40;;;;;;;11.35;5.70;;;;;;;-3.47;100.00;99419.78;5159979;27;20093;-66
2022/12/25 07:38:07;;;;;;;9.65;6.13;;;;;;;-3.49;100.00;99403.97;5160333;27;20047;-64
2022/12/25 07:40:33;;;;;;;10.80;7.07;;;;;;;-3.69;100.00;99409.31;5159962;27;20058;-62
2022/12/25 07:42:59;;;;;;;10.43;7.13;;;;;;;-3.43;100.00;99455.69;5160274;27;20103;-66
2022/12/25 07:45:25;;;;;;;11.85;7.40;;;;;;;-3.36;100.00;99449.03;5159915;27;20073;-62
2022/12/25 07:47:53;;;;;;;13.95;8.02;;;;;;;-3.15;100.00;99432.94;5160176;27;20082;-66
2022/12/25 07:50:19;;;;;;;9.43;6.95;;;;;;;-3.20;100.00;99398.91;5159718;27;20050;-64
2022/12/25 07:52:45;;;;;;;11.63;7.30;;;;;;;-3.26;100.00;99370.47;5160143;27;20103;-65
2022/12/25 07:55:12;;;;;;;12.30;8.20;;;;;;;-3.15;100.00;99384.69;5159625;27;20062;-65
2022/12/25 07:57:38;;;;;;;15.32;9.13;;;;;;;-3.54;100.00;99353.03;5159856;27;20077;-65
2022/12/25 08:00:07;;;;;;;12.77;8.18;;;;;;;-3.16;100.00;99383.06;5159935;27;20054;-64
2022/12/25 08:02:33;;;;;;;13.73;7.53;;;;;;;-3.03;100.00;99384.38;5159514;27;20051;-63
2022/12/25 08:05:00;;;;;;;11.07;8.82;;;;;;;-3.32;100.00;99353.56;5159820;27;20110;-65
2022/12/25 08:07:26;;;;;;;13.43;7.88;;;;;;;-3.63;100.00;99378.75;5159510;27;20404;-62
2022/12/25 08:09:52;;;;;;;13.10;8.30;;;;;;;-3.48;100.00;99453.81;5159676;27;20042;-65
2022/12/25 08:12:18;;;;;;;12.18;8.45;;;;;;;-3.08;100.00;99485.25;5159334;27;20423;-62
2022/12/25 08:14:45;;;;;;;12.10;7.68;;;;;;;-2.93;100.00;99438.03;5159804;27;20088;-65
2022/12/25 08:17:11;;;;;;;17.67;8.43;;;;;;;-3.55;100.00;99408.50;5159147;27;20376;-62
2022/12/25 08:19:37;;;;;;;11.63;6.85;;;;;;;-3.16;100.00;99460.84;5159565;27;20061;-66
2022/12/25 08:22:04;;;;;;;14.23;8.98;;;;;;;-3.12;100.00;99430.53;5159083;27;20053;-61
2022/12/25 08:24:30;;;;;;;10.38;7.35;;;;;;;-2.96;100.00;99425.97;5159361;27;20061;-64
2022/12/25 08:26:57;;;;;;;11.65;7.65;;;;;;;-3.20;100.00;99390.03;5159039;27;20076;-63
2022/12/25 08:29:23;;;;;;;10.82;8.00;;;;;;;-3.15;100.00;99408.81;5158389;27;20046;-65
2022/12/25 08:31:50;;;;;;;13.13;7.68;;;;;;;-3.36;100.00;99376.63;5159295;27;20066;-66
2022/12/25 08:34:16;;;;;;;12.63;8.05;;;;;;;-3.10;100.00;99406.94;5159021;27;20085;-65
2022/12/25 08:36:42;;;;;;;11.75;7.88;;;;;;;-3.51;100.00;99392.69;5159285;27;20435;-65
2022/12/25 08:39:10;;;;;;;13.95;9.00;;;;;;;-3.88;100.00;99446.47;5158941;27;20055;-64
2022/12/25 08:41:36;;;;;;;18.80;7.93;;;;;;;-3.47;100.00;99495.63;5159569;27;20050;-65
2022/12/25 08:44:03;;;;;;;12.15;8.13;;;;;;;-3.36;100.00;99505.31;5158992;27;20090;-62
2022/12/25 08:46:29;;;;;;;11.93;8.30;;;;;;;-2.99;100.00;99490.09;5159270;27;20467;-62
2022/12/25 08:48:55;;;;;;;13.70;8.10;;;;;;;-3.16;100.00;99423.31;5158869;27;20046;-66
2022/12/25 08:51:23;;;;;;;15.77;8.70;;;;;;;-2.86;100.00;99396.44;5158706;27;20057;-65
2022/12/25 08:53:51;;;;;;;14.20;8.25;;;;;;;-3.01;100.00;99323.25;5158673;27;20090;-65
2022/12/25 08:56:19;;;;;;;11.70;8.30;;;;;;;-3.61;100.00;99290.88;5158940;27;20068;-64
2022/12/25 08:58:46;;;;;;;13.32;8.13;;;;;;;-2.80;100.00;99365.03;5159032;27;20129;-62
2022/12/25 09:01:13;;;;;;;16.20;9.43;;;;;;;-2.77;100.00;99318.06;5158522;27;20089;-64
2022/12/25 09:03:39;;;;;;;19.35;9.13;;;;;;;-2.97;100.00;99287.53;5158804;27;20058;-65
2022/12/25 09:06:07;;;;;;;12.88;9.13;;;;;;;-2.74;100.00;99261.19;5158628;27;20057;-61
2022/12/25 09:08:34;;;;;;;12.60;8.95;;;;;;;-3.16;100.00;99241.75;5159067;27;20046;-65
2022/12/25 09:11:02;;;;;;;15.85;10.10;;;;;;;-3.35;100.00;99305.84;5158562;27;20395;-64
2022/12/25 09:13:28;;;;;;;15.20;9.02;;;;;;;-3.53;100.00;99333.22;5158963;27;20050;-63
2022/12/25 09:15:55;;;;;;;24.25;9.50;;;;;;;-3.49;100.00;99395.94;5158396;27;20366;-65
2022/12/25 09:18:21;;;;;;;15.25;8.68;;;;;;;-2.95;100.00;99418.72;5158715;27;20107;-62
2022/12/25 09:20:55;;;;;;;12.57;8.95;;;;;;;-3.06;100.00;99348.19;5158732;27;20323;-65
2022/12/25 09:23:22;;;;;;;16.08;10.15;;;;;;;-2.91;100.00;99301.75;5158196;27;20046;-63
2022/12/25 09:25:48;;;;;;;14.90;8.68;;;;;;;-3.53;100.00;99247.47;5158341;27;20073;-64
2022/12/25 09:28:14;;;;;;;14.55;9.18;;;;;;;-3.35;100.00;99271.00;5158111;27;20042;-63
2022/12/25 09:30:41;;;;;;;14.48;9.48;;;;;;;-3.46;100.00;99280.16;5158310;27;20129;-65
2022/12/25 09:33:07;;;;;;;13.65;8.23;;;;;;;-3.06;100.00;99331.31;5158020;27;20047;-62
2022/12/25 09:35:35;;;;;;;19.42;10.45;;;;;;;-3.40;100.00;99308.56;5158589;27;20364;-65
2022/12/25 09:38:01;;;;;;;14.05;9.57;;;;;;;-3.14;100.00;99341.47;5157873;27;20434;-64
2022/12/25 09:40:30;;;;;;;14.75;9.18;;;;;;;-3.83;100.00;99313.38;5157511;27;20053;-62
2022/12/25 09:42:57;;;;;;;18.25;10.05;;;;;;;-3.54;100.00;99398.59;5157871;27;20053;-62
2022/12/25 09:45:26;;;;;;;16.95;10.20;;;;;;;-3.10;100.00;99406.13;5157776;27;20068;-65
2022/12/25 09:47:56;;;;;;;17.23;9.98;;;;;;;-3.34;100.00;99393.25;5157831;27;20050;-63
2022/12/25 09:50:28;;;;;;;19.83;11.07;;;;;;;-3.28;100.00;99394.06;5157882;27;20412;-62
2022/12/25 09:53:00;;;;;;;21.33;10.98;;;;;;;-2.77;100.00;99393.19;5158119;27;20089;-65
2022/12/25 09:55:30;;;;;;;23.85;11.68;;;;;;;-2.64;100.00;99349.69;5157888;27;20134;-64
2022/12/25 09:57:59;;;;;;;16.77;10.73;;;;;;;-3.24;100.00;99295.91;5158148;27;20315;-64
2022/12/25 10:00:32;;;;;;;15.20;9.52;;;;;;;-3.41;100.00;99324.91;5157509;27;20046;-63
2022/12/25 10:03:11;;;;;;;17.75;11.70;;;;;;;-2.92;100.00;99361.84;5158013;27;20047;-63
2022/12/25 10:06:09;;;;;;;19.08;9.85;;;;;;;-2.93;100.00;99326.19;5157563;27;20057;-63
2022/12/25 10:09:01;;;;;;;20.85;10.80;;;;;;;-3.61;100.00;99320.34;5155915;27;20111;-63
2022/12/25 10:11:46;;;;;;;15.68;9.75;;;;;;;-3.47;100.00;99404.50;5157833;27;20050;-62
2022/12/25 10:14:22;;;;;;;20.92;10.25;;;;;;;-3.16;100.00;99483.09;5157552;27;20129;-65
2022/12/25 10:17:00;;;;;;;20.30;10.95;;;;;;;-3.02;100.00;99456.56;5157979;27;20195;-62
2022/12/25 10:19:40;;;;;;;21.48;11.25;;;;;;;-3.15;100.00;99475.84;5157911;27;20134;-62
2022/12/25 10:22:12;;;;;;;25.52;11.55;;;;;;;-2.85;100.00;99467.00;5157702;27;20138;-65
2022/12/25 10:24:44;;;;;;;22.27;11.90;;;;;;;-3.36;100.00;99456.25;5157658;27;20046;-66
2022/12/25 10:27:16;;;;;;;25.65;11.85;;;;;;;-3.37;100.00;99502.88;5157326;27;20103;-64
2022/12/25 10:29:45;;;;;;;23.02;12.15;;;;;;;-3.19;100.00;99552.56;5157810;27;20046;-66
2022/12/25 10:32:11;;;;;;;19.65;10.27;;;;;;;-3.29;100.00;99577.47;5157407;27;20142;-63
2022/12/25 10:34:41;;;;;;;19.10;10.43;;;;;;;-3.56;100.00;99575.75;5157934;27;20046;-66
2022/12/25 10:37:10;;;;;;;17.75;10.32;;;;;;;-3.50;100.00;99642.75;5157404;27;20316;-62
2022/12/25 10:39:36;;;;;;;16.55;9.63;;;;;;;-3.55;100.00;99625.59;5157618;27;20046;-65
2022/12/25 10:42:17;;;;;;;17.42;10.60;;;;;;;-3.04;100.00;99625.00;5157371;27;20110;-63
2022/12/25 10:44:54;;;;;;;20.20;11.38;;;;;;;-3.26;100.00;99541.28;5157375;27;20138;-63
2022/12/25 10:47:24;;;;;;;20.13;11.23;;;;;;;-2.90;100.00;99513.44;5157449;27;20057;-64
2022/12/25 10:49:52;;;;;;;17.63;10.57;;;;;;;-3.20;100.00;99478.50;5157127;27;20411;-66
2022/12/25 10:52:20;;;;;;;20.52;10.00;;;;;;;-3.05;100.00;99467.81;5159594;27;20050;-65
2022/12/25 10:54:46;;;;;;;14.55;9.93;;;;;;;-3.19;100.00;99430.00;5160750;27;20046;-64
2022/12/25 10:57:15;;;;;;;14.70;10.27;;;;;;;-3.31;100.00;99408.00;5161121;27;20363;-65
2022/12/25 10:59:43;;;;;;;15.82;9.90;;;;;;;-3.44;100.00;99446.84;5160573;27;20043;-64
2022/12/25 11:02:15;;;;;;;18.17;10.10;;;;;;;-3.23;100.00;99454.91;5160542;27;20110;-66
2022/12/25 11:04:42;;;;;;;16.65;9.82;;;;;;;-2.96;100.00;99468.91;5160701;27;20047;-65
2022/12/25 11:07:19;;;;;;;17.85;10.23;;;;;;;-3.05;100.00;99413.38;5160434;27;20114;-65
2022/12/25 11:09:49;;;;;;;17.70;10.38;;;;;;;-3.02;100.00;99372.59;5160680;27;20137;-65
2022/12/25 11:12:18;;;;;;;16.23;9.70;;;;;;;-3.47;100.00;99307.19;5160392;27;20050;-64
2022/12/25 11:14:52;;;;;;;16.00;9.45;;;;;;;-3.33;100.00;99351.19;5160824;27;20334;-66
2022/12/25 11:17:23;;;;;;;18.90;10.00;;;;;;;-3.20;100.00;99380.13;5160359;27;20061;-65
2022/12/25 11:19:53;;;;;;;15.35;9.20;;;;;;;-2.89;100.00;99407.72;5160711;27;20058;-66
2022/12/25 11:22:20;;;;;;;14.90;9.65;;;;;;;-2.61;100.00;99376.78;5160547;27;20062;-65
2022/12/25 11:24:46;;;;;;;15.88;9.63;;;;;;;-2.91;100.00;99333.94;5160227;27;20082;-63
2022/12/25 11:27:26;;;;;;;18.60;9.63;;;;;;;-3.02;100.00;99330.47;5160467;27;20050;-66
2022/12/25 11:29:56;;;;;;;18.13;10.43;;;;;;;-3.31;100.00;99346.34;5160330;27;20055;-65
2022/12/25 11:32:29;;;;;;;19.55;10.48;;;;;;;-3.16;100.00;99386.56;5160473;27;20043;-64
2022/12/25 11:34:56;;;;;;;18.58;11.13;;;;;;;-3.31;100.00;99421.41;5160156;27;20126;-66
2022/12/25 11:37:32;;;;;;;21.35;11.10;;;;;;;-3.46;100.00;99437.47;5160434;27;20091;-65
2022/12/25 11:39:58;;;;;;;19.67;10.95;;;;;;;-3.33;100.00;99450.38;5159988;27;20053;-65
2022/12/25 11:42:28;;;;;;;19.35;11.75;;;;;;;-3.16;100.00;99471.56;5160068;27;20074;-65
2022/12/25 11:45:01;;;;;;;20.50;12.02;;;;;;;-2.85;100.00;99462.44;5159690;27;20054;-65
2022/12/25 11:47:34;;;;;;;20.17;11.00;;;;;;;-2.95;100.00;99424.09;5160021;27;20042;-66
2022/12/25 11:50:04;;;;;;;18.50;10.25;;;;;;;-2.93;100.00;99387.88;5159891;27;20061;-64
2022/12/25 11:52:36;;;;;;;20.98;11.95;;;;;;;-2.99;100.00;99401.56;5159820;27;20089;-63
2022/12/25 11:55:09;;;;;;;20.52;11.07;;;;;;;-2.87;100.00;99389.47;5159938;27;20161;-64
2022/12/25 11:57:38;;;;;;;22.88;12.65;;;;;;;-2.99;100.00;99386.28;5159577;27;20416;-65
2022/12/25 12:00:09;;;;;;;21.23;11.68;;;;;;;-2.93;100.00;99387.06;5159466;27;20058;-63
2022/12/25 12:02:42;;;;;;;20.27;10.40;;;;;;;-2.62;100.00;99390.50;5159143;27;20323;-64
2022/12/25 12:05:16;;;;;;;23.73;11.02;;;;;;;-2.83;100.00;99344.13;5159314;27;20137;-64
2022/12/25 12:07:53;;;;;;;20.88;10.63;;;;;;;-2.74;100.00;99331.75;5159526;27;20434;-65
2022/12/25 12:10:28;;;;;;;19.75;11.15;;;;;;;-2.64;100.00;99318.28;5159405;27;20055;-66
2022/12/25 12:13:01;;;;;;;20.23;10.45;;;;;;;-2.65;100.00;99267.59;5159669;27;20133;-65
2022/12/25 12:15:30;;;;;;;20.40;10.83;;;;;;;-3.16;100.00;99281.97;5159333;27;20208;-65
2022/12/25 12:18:08;;;;;;;17.10;9.13;;;;;;;-2.64;100.00;99306.75;5159753;27;20051;-62
2022/12/25 12:20:36;;;;;;;21.48;10.52;;;;;;;-3.02;100.00;99263.44;5159163;27;20412;-65
2022/12/25 12:23:12;;;;;;;19.83;10.43;;;;;;;-3.01;100.00;99296.41;5159419;27;20392;-62
2022/12/25 12:25:40;;;;;;;18.38;10.82;;;;;;;-2.61;100.00;99316.94;5159478;27;20081;-64
2022/12/25 12:28:13;;;;;;;20.52;10.65;;;;;;;-2.94;100.00;99304.97;5159534;27;20062;-62
2022/12/25 12:30:39;;;;;;;17.83;10.25;;;;;;;-2.70;100.00;99307.84;5159429;27;20212;-63
2022/12/25 12:33:07;;;;;;;19.63;10.45;;;;;;;-2.79;100.00;99271.94;5158953;27;20056;-65
2022/12/25 12:35:36;;;;;;;19.08;9.20;;;;;;;-3.41;100.00;99258.69;5159444;27;20091;-64
2022/12/25 12:38:07;;;;;;;16.13;9.88;;;;;;;-3.22;100.00;99309.88;5158921;27;20133;-62
2022/12/25 12:40:37;;;;;;;18.40;10.02;;;;;;;-2.94;100.00;99327.22;5159432;27;20046;-64
2022/12/25 12:43:04;;;;;;;16.90;9.93;;;;;;;-2.93;100.00;99320.81;5158888;27;20137;-64
2022/12/25 12:45:34;;;;;;;18.13;10.98;;;;;;;-2.84;100.00;99310.31;5159041;27;20154;-63
2022/12/25 12:48:01;;;;;;;16.67;9.63;;;;;;;-2.91;100.00;99313.28;5159150;27;20046;-65
2022/12/25 12:50:33;;;;;;;17.30;8.80;;;;;;;-3.02;100.00;99313.59;5158854;27;20042;-63
2022/12/25 12:53:14;;;;;;;19.48;9.48;;;;;;;-2.96;100.00;99325.91;5159140;27;20199;-61
2022/12/25 12:55:41;;;;;;;17.80;10.10;;;;;;;-2.95;100.00;99327.53;5158826;27;20051;-66
2022/12/25 12:58:23;;;;;;;19.48;11.55;;;;;;;-3.08;100.00;99320.84;5159154;27;20109;-62
2022/12/25 13:00:56;;;;;;;17.17;9.63;;;;;;;-3.29;100.00;99372.88;5158728;27;20351;-64
2022/12/25 13:03:33;;;;;;;23.27;10.45;;;;;;;-2.87;100.00;99416.28;5159001;27;20099;-65
2022/12/25 13:06:08;;;;;;;16.73;9.45;;;;;;;-3.24;100.00;99370.19;5158704;27;20043;-64
2022/12/25 13:08:50;;;;;;;15.23;9.55;;;;;;;-3.02;100.00;99376.09;5158525;27;20052;-62
2022/12/25 13:11:20;;;;;;;15.65;8.63;;;;;;;-2.70;100.00;99391.03;5158885;27;20137;-64
2022/12/25 13:13:48;;;;;;;16.77;9.77;;;;;;;-2.77;100.00;99351.06;5158418;27;20046;-63